Time;durP1;ratioP1;P1;durP2;ratioP2;P2;SDS_P1;SDS_P2;PMS_P1;PMS_P2;Temp;Humidity;BMP_temperature;BMP_pressure;BME280_temperature;BME280_humidity;BME280_pressure;Samples;Min_cycle;Max_cycle;Signal;HPM_P1;HPM_P2
2023/04/08 00:02:15;;;;;;;5.70;5.30;;;;;;;10.34;100.00;100654.97;5030217;28;20184;-73
2023/04/08 00:04:40;;;;;;;5.53;5.13;;;;;;;10.31;100.00;100658.44;5031691;28;21096;-73
2023/04/08 00:07:06;;;;;;;6.57;6.07;;;;;;;10.29;100.00;100657.56;5033108;28;20623;-73
2023/04/08 00:09:31;;;;;;;6.80;6.20;;;;;;;10.27;100.00;100656.72;5034800;28;20224;-75
2023/04/08 00:11:57;;;;;;;7.03;6.43;;;;;;;10.25;100.00;100667.94;5044530;28;20298;-71
2023/04/08 00:14:22;;;;;;;6.77;6.27;;;;;;;10.24;100.00;100664.47;5028342;28;20260;-73
2023/04/08 00:16:48;;;;;;;6.57;6.07;;;;;;;10.24;100.00;100664.47;5028486;28;20241;-74
2023/04/08 00:19:13;;;;;;;7.13;6.53;;;;;;;10.25;100.00;100670.53;5029142;28;20188;-74
2023/04/08 00:21:39;;;;;;;7.60;6.90;;;;;;;10.22;100.00;100663.59;5031374;28;20183;-75
2023/04/08 00:24:05;;;;;;;6.63;6.10;;;;;;;10.21;100.00;100669.66;5049539;28;20216;-72
2023/04/08 00:26:31;;;;;;;7.00;6.50;;;;;;;10.19;100.00;100669.66;5029369;28;20187;-72
2023/04/08 00:28:56;;;;;;;7.50;6.90;;;;;;;10.18;100.00;100667.94;5030263;28;20205;-72
2023/04/08 00:31:22;;;;;;;7.67;7.07;;;;;;;10.19;100.00;100672.25;5035119;28;20225;-74
2023/04/08 00:33:47;;;;;;;7.50;6.90;;;;;;;10.17;100.00;100663.63;5043400;28;20232;-72
2023/04/08 00:36:12;;;;;;;6.90;6.30;;;;;;;10.20;100.00;100661.03;5029649;28;20687;-73
2023/04/08 00:38:38;;;;;;;7.57;7.00;;;;;;;10.22;100.00;100668.78;5034849;28;20188;-74
2023/04/08 00:41:03;;;;;;;7.57;6.97;;;;;;;10.25;100.00;100661.03;5031173;28;20295;-75
2023/04/08 00:43:29;;;;;;;7.60;7.00;;;;;;;10.27;100.00;100666.22;5040789;28;20207;-73
2023/04/08 00:45:54;;;;;;;7.57;6.97;;;;;;;10.28;100.00;100668.78;5031583;28;20184;-74
2023/04/08 00:48:20;;;;;;;7.57;6.97;;;;;;;10.28;100.00;100667.94;5032052;28;20186;-71
2023/04/08 00:50:46;;;;;;;7.27;6.77;;;;;;;10.29;100.00;100672.22;5029484;28;20195;-71
2023/04/08 00:53:16;;;;;;;8.10;7.40;;;;;;;10.31;100.00;100676.53;5029296;28;20218;-72
2023/04/08 00:55:41;;;;;;;8.03;7.43;;;;;;;10.27;100.00;100667.06;5035840;28;20214;-73
2023/04/08 00:58:07;;;;;;;7.70;7.10;;;;;;;10.28;100.00;100673.97;5032152;28;20706;-75
2023/04/08 01:00:34;;;;;;;8.90;8.20;;;;;;;10.26;100.00;100680.84;5029572;28;20196;-73
2023/04/08 01:03:35;;;;;;;8.67;7.97;;;;;;;10.18;100.00;100677.44;5034074;28;20190;-72
2023/04/08 01:06:12;;;;;;;7.73;7.13;;;;;;;10.10;100.00;100677.44;5010929;28;20825;-71
2023/04/08 01:08:40;;;;;;;7.70;7.10;;;;;;;10.10;100.00;100676.56;5030821;28;20278;-74
2023/04/08 01:11:09;;;;;;;7.57;7.00;;;;;;;10.11;100.00;100675.69;5034046;28;20214;-72
2023/04/08 01:13:39;;;;;;;7.90;7.30;;;;;;;10.13;100.00;100671.38;5028710;28;20302;-72
2023/04/08 01:16:08;;;;;;;7.27;6.77;;;;;;;10.14;100.00;100681.72;5033161;28;20717;-71
2023/04/08 01:18:35;;;;;;;8.60;7.90;;;;;;;10.12;100.00;100675.72;5033006;28;20195;-72
2023/04/08 01:21:02;;;;;;;9.07;8.37;;;;;;;10.06;100.00;100684.31;5030708;28;20290;-72
2023/04/08 01:23:51;;;;;;;9.30;8.60;;;;;;;9.97;100.00;100679.16;5031933;28;20211;-73
2023/04/08 01:26:21;;;;;;;9.40;8.67;;;;;;;9.93;100.00;100674.84;5031624;28;20188;-72
2023/04/08 01:28:49;;;;;;;9.50;8.70;;;;;;;9.94;100.00;100678.31;5033226;28;20188;-71
2023/04/08 01:31:16;;;;;;;9.07;8.20;;;;;;;9.96;100.00;100677.44;5030946;28;20216;-72
2023/04/08 01:33:43;;;;;;;8.80;8.10;;;;;;;9.97;100.00;100675.72;5034336;28;20553;-72
2023/04/08 01:36:09;;;;;;;8.70;8.10;;;;;;;9.95;100.00;100678.28;5030880;28;20187;-71
2023/04/08 01:38:36;;;;;;;8.87;8.17;;;;;;;9.93;100.00;100677.41;5033901;28;20271;-73
2023/04/08 01:41:04;;;;;;;9.37;8.43;;;;;;;9.95;100.00;100678.28;5027376;28;20198;-74
2023/04/08 01:43:31;;;;;;;8.93;8.23;;;;;;;9.95;100.00;100669.69;5029997;28;20242;-73
2023/04/08 01:45:57;;;;;;;8.90;8.27;;;;;;;9.97;100.00;100676.56;5041582;28;20197;-73
2023/04/08 01:48:24;;;;;;;9.63;8.73;;;;;;;9.98;100.00;100662.78;5037878;28;20535;-72
2023/04/08 01:50:50;;;;;;;9.60;8.87;;;;;;;9.98;100.00;100664.53;5031507;28;20197;-73
2023/04/08 01:53:16;;;;;;;9.33;8.53;;;;;;;9.99;100.00;100668.81;5033029;28;20215;-72
2023/04/08 01:55:43;;;;;;;9.83;9.07;;;;;;;9.98;100.00;100672.28;5034657;28;20927;-72
2023/04/08 01:58:15;;;;;;;9.50;8.80;;;;;;;9.98;100.00;100665.38;5039232;28;20263;-72
2023/04/08 02:00:42;;;;;;;9.47;8.77;;;;;;;9.98;100.00;100670.53;5032087;28;20190;-72
2023/04/08 02:03:10;;;;;;;9.97;9.17;;;;;;;9.97;100.00;100668.81;5033047;28;20210;-71
2023/04/08 02:05:36;;;;;;;9.57;8.87;;;;;;;9.92;100.00;100662.78;5036032;28;20699;-74
2023/04/08 02:08:01;;;;;;;10.30;9.40;;;;;;;9.88;100.00;100661.91;5035069;28;20761;-73
2023/04/08 02:10:26;;;;;;;10.23;9.43;;;;;;;9.84;100.00;100662.78;5037853;28;20187;-71
2023/04/08 02:12:52;;;;;;;10.00;9.20;;;;;;;9.83;100.00;100665.38;5033424;28;20215;-72
2023/04/08 02:15:17;;;;;;;10.03;9.23;;;;;;;9.79;100.00;100668.81;5038046;28;20190;-72
2023/04/08 02:17:54;;;;;;;9.40;8.67;;;;;;;9.79;100.00;100671.38;5035849;28;20193;-71
2023/04/08 02:20:29;;;;;;;9.17;8.47;;;;;;;9.76;100.00;100673.09;5036327;28;20190;-74
2023/04/08 02:23:07;;;;;;;9.50;8.80;;;;;;;9.78;100.00;100678.28;5032519;28;20206;-73
2023/04/08 02:25:36;;;;;;;10.30;9.50;;;;;;;9.82;100.00;100676.56;5036364;28;21566;-71
2023/04/08 02:28:08;;;;;;;10.33;9.53;;;;;;;9.81;100.00;100678.31;5033141;28;20195;-71
2023/04/08 02:30:34;;;;;;;10.20;9.40;;;;;;;9.81;100.00;100682.59;5032821;28;21185;-73
2023/04/08 02:33:03;;;;;;;10.40;9.60;;;;;;;9.80;100.00;100679.16;5034300;28;20234;-71
2023/04/08 02:35:30;;;;;;;9.90;9.10;;;;;;;9.80;100.00;100670.53;5033750;28;20249;-72
2023/04/08 02:37:55;;;;;;;9.57;8.87;;;;;;;9.81;100.00;100674.84;5039067;28;20606;-75
2023/04/08 02:40:25;;;;;;;9.83;9.13;;;;;;;9.81;100.00;100674.84;5032974;28;20222;-72
2023/04/08 02:42:50;;;;;;;10.43;9.53;;;;;;;9.80;100.00;100681.75;5045764;28;20266;-69
2023/04/08 02:45:16;;;;;;;9.90;9.13;;;;;;;9.81;100.00;100673.13;5039286;28;20302;-74
2023/04/08 02:47:41;;;;;;;10.10;9.30;;;;;;;9.80;100.00;100667.94;5035727;28;20188;-72
2023/04/08 02:50:07;;;;;;;10.33;9.50;;;;;;;9.78;100.00;100665.38;5041647;28;20285;-73
2023/04/08 02:52:32;;;;;;;10.60;9.70;;;;;;;9.76;100.00;100662.78;5039356;28;20306;-72
2023/04/08 02:54:57;;;;;;;9.83;9.03;;;;;;;9.72;100.00;100674.00;5031627;28;20204;-72
2023/04/08 02:57:23;;;;;;;10.20;9.40;;;;;;;9.71;100.00;100669.69;5033664;28;20244;-73
2023/04/08 02:59:48;;;;;;;10.00;9.10;;;;;;;9.68;100.00;100668.81;5038592;28;20196;-72
2023/04/08 03:02:13;;;;;;;9.80;9.00;;;;;;;9.66;100.00;100673.13;5032989;28;20227;-72
2023/04/08 03:04:38;;;;;;;9.93;9.13;;;;;;;9.63;100.00;100673.13;5037171;28;20801;-73
2023/04/08 03:07:04;;;;;;;9.53;8.73;;;;;;;9.60;100.00;100673.97;5033412;28;20233;-72
2023/04/08 03:09:30;;;;;;;9.67;8.87;;;;;;;9.58;100.00;100679.13;5032871;28;20340;-72
2023/04/08 03:11:55;;;;;;;9.07;8.37;;;;;;;9.58;100.00;100670.53;5036268;28;20230;-68
2023/04/08 03:14:21;;;;;;;8.87;8.17;;;;;;;9.61;100.00;100670.50;5032245;28;20207;-73
2023/04/08 03:16:46;;;;;;;9.80;9.00;;;;;;;9.60;100.00;100668.81;5033297;28;20191;-74
2023/04/08 03:19:11;;;;;;;10.23;9.43;;;;;;;9.61;100.00;100668.81;5040418;28;20980;-71
2023/04/08 03:21:37;;;;;;;10.67;9.77;;;;;;;9.64;100.00;100672.25;5033055;28;20176;-72
2023/04/08 03:24:02;;;;;;;10.93;10.13;;;;;;;9.66;100.00;100678.28;5035941;28;20212;-73
2023/04/08 03:26:28;;;;;;;11.33;10.33;;;;;;;9.66;100.00;100675.72;5028706;28;20187;-73
2023/04/08 03:28:53;;;;;;;11.27;10.37;;;;;;;9.66;100.00;100673.97;5039074;28;20194;-72
2023/04/08 03:31:20;;;;;;;12.07;11.13;;;;;;;9.68;100.00;100674.00;5031262;28;20211;-77
2023/04/08 03:33:45;;;;;;;11.27;10.37;;;;;;;9.66;100.00;100673.13;5035891;28;20678;-72
2023/04/08 03:36:11;;;;;;;11.60;10.70;;;;;;;9.65;100.00;100674.84;5032787;28;20206;-74
2023/04/08 03:38:36;;;;;;;11.90;10.90;;;;;;;9.64;100.00;100680.84;5036123;28;20217;-73
2023/04/08 03:41:02;;;;;;;10.90;10.00;;;;;;;9.63;100.00;100681.72;5038136;28;20248;-72
2023/04/08 03:43:27;;;;;;;11.60;10.63;;;;;;;9.63;100.00;100684.28;5035171;28;20269;-72
2023/04/08 03:45:52;;;;;;;11.40;10.50;;;;;;;9.63;100.00;100680.88;5034803;28;20182;-74
2023/04/08 03:48:18;;;;;;;11.90;10.90;;;;;;;9.61;100.00;100680.84;5038677;28;20203;-72
2023/04/08 03:50:43;;;;;;;11.80;10.80;;;;;;;9.60;100.00;100677.41;5046796;28;20187;-71
2023/04/08 03:53:10;;;;;;;11.00;10.13;;;;;;;9.61;100.00;100686.00;5032702;28;20234;-72
2023/04/08 03:55:35;;;;;;;11.63;10.73;;;;;;;9.62;100.00;100685.16;5029049;28;20189;-72
2023/04/08 03:58:01;;;;;;;11.90;10.90;;;;;;;9.63;100.00;100691.19;5032947;28;20215;-72
2023/04/08 04:00:26;;;;;;;10.63;9.80;;;;;;;9.61;100.00;100681.72;5034103;28;20290;-72
2023/04/08 04:02:51;;;;;;;11.97;10.97;;;;;;;9.60;100.00;100690.34;5033480;28;20179;-73
2023/04/08 04:05:17;;;;;;;11.70;10.70;;;;;;;9.59;100.00;100685.19;5034183;28;20198;-71
2023/04/08 04:07:42;;;;;;;11.13;10.17;;;;;;;9.59;100.00;100685.19;5030409;28;20211;-75
2023/04/08 04:10:09;;;;;;;10.67;9.80;;;;;;;9.59;100.00;100687.75;5033357;28;20199;-74
2023/04/08 04:12:34;;;;;;;10.93;10.03;;;;;;;9.59;100.00;100688.59;5038267;28;20280;-73
2023/04/08 04:14:59;;;;;;;11.13;10.13;;;;;;;9.58;100.00;100686.88;5029780;28;21136;-72
2023/04/08 04:17:25;;;;;;;12.03;11.10;;;;;;;9.57;100.00;100682.56;5028217;28;20602;-72
2023/04/08 04:19:51;;;;;;;11.33;10.43;;;;;;;9.58;100.00;100686.03;5032763;28;20194;-71
2023/04/08 04:22:17;;;;;;;11.20;10.30;;;;;;;9.57;100.00;100682.56;5031766;28;20270;-72
2023/04/08 04:24:46;;;;;;;10.33;9.53;;;;;;;9.58;100.00;100680.88;5029544;28;20747;-74
2023/04/08 04:27:11;;;;;;;10.10;9.30;;;;;;;9.58;100.00;100680.88;5031328;28;20190;-73
2023/04/08 04:29:36;;;;;;;10.70;9.80;;;;;;;9.58;100.00;100683.44;5034114;28;20176;-74
2023/04/08 04:32:01;;;;;;;10.87;10.00;;;;;;;9.57;100.00;100684.31;5032413;28;20249;-71
2023/04/08 04:34:27;;;;;;;10.43;9.60;;;;;;;9.52;100.00;100683.44;5031539;28;20218;-73
2023/04/08 04:36:52;;;;;;;10.60;9.70;;;;;;;9.47;100.00;100693.75;5032556;28;20290;-72
2023/04/08 04:39:17;;;;;;;11.10;10.10;;;;;;;9.42;100.00;100691.16;5033191;28;20339;-73
2023/04/08 04:41:43;;;;;;;10.83;10.00;;;;;;;9.38;100.00;100698.88;5031730;28;20207;-73
2023/04/08 04:44:08;;;;;;;10.20;9.50;;;;;;;9.39;100.00;100696.31;5034339;28;20211;-72
2023/04/08 04:46:34;;;;;;;11.10;10.20;;;;;;;9.39;100.00;100705.78;5031087;28;20727;-71
2023/04/08 04:48:59;;;;;;;11.10;10.20;;;;;;;9.36;100.00;100701.47;5036665;28;20187;-73
2023/04/08 04:51:25;;;;;;;11.00;10.10;;;;;;;9.37;100.00;100712.69;5031537;28;20211;-72
2023/04/08 04:53:51;;;;;;;11.23;10.27;;;;;;;9.37;100.00;100713.53;5038491;28;20222;-72
2023/04/08 04:56:16;;;;;;;11.97;10.97;;;;;;;9.38;100.00;100714.38;5037594;28;20768;-73
2023/04/08 04:58:42;;;;;;;12.07;11.07;;;;;;;9.38;100.00;100712.69;5029198;28;20185;-74
2023/04/08 05:01:07;;;;;;;11.47;10.50;;;;;;;9.38;100.00;100717.84;5029817;28;20191;-71
2023/04/08 05:03:32;;;;;;;11.73;10.73;;;;;;;9.35;100.00;100717.84;5032967;28;20215;-72
2023/04/08 05:05:58;;;;;;;12.23;11.20;;;;;;;9.35;100.00;100714.41;5032019;28;20198;-72
2023/04/08 05:08:23;;;;;;;11.00;10.10;;;;;;;9.37;100.00;100725.59;5029588;28;20198;-72
2023/04/08 05:10:49;;;;;;;11.33;10.40;;;;;;;9.38;100.00;100722.13;5030675;28;20195;-72
2023/04/08 05:13:15;;;;;;;11.17;10.27;;;;;;;9.41;100.00;100725.63;5033470;28;20227;-73
2023/04/08 05:15:40;;;;;;;11.47;10.47;;;;;;;9.43;100.00;100720.44;5028175;28;20318;-72
2023/04/08 05:18:05;;;;;;;11.47;10.47;;;;;;;9.45;100.00;100718.72;5029133;28;20283;-70
2023/04/08 05:20:31;;;;;;;11.43;10.43;;;;;;;9.48;100.00;100721.31;5027167;28;20195;-72
2023/04/08 05:22:56;;;;;;;11.83;10.70;;;;;;;9.50;100.00;100729.06;5036748;28;20187;-72
2023/04/08 05:25:21;;;;;;;11.10;10.10;;;;;;;9.53;100.00;100737.69;5034331;28;20326;-72
2023/04/08 05:27:47;;;;;;;10.93;9.93;;;;;;;9.57;100.00;100741.16;5031205;28;20316;-71
2023/04/08 05:30:12;;;;;;;11.20;10.30;;;;;;;9.59;100.00;100729.94;5041571;28;20315;-71
2023/04/08 05:32:37;;;;;;;11.83;10.93;;;;;;;9.62;100.00;100736.84;5047517;28;20351;-73
2023/04/08 05:35:03;;;;;;;11.50;10.57;;;;;;;9.63;100.00;100746.31;5033986;28;20206;-73
2023/04/08 05:37:28;;;;;;;11.97;10.97;;;;;;;9.64;100.00;100737.72;5036975;28;22009;-72
2023/04/08 05:39:54;;;;;;;12.37;11.37;;;;;;;9.66;100.00;100733.41;5035501;28;20687;-72
2023/04/08 05:42:19;;;;;;;11.53;10.53;;;;;;;9.69;100.00;100742.88;5035706;28;20258;-72
2023/04/08 05:44:44;;;;;;;10.40;9.60;;;;;;;9.74;100.00;100749.81;5035611;28;20207;-72
2023/04/08 05:47:10;;;;;;;11.37;10.40;;;;;;;9.79;100.00;100741.19;5031266;28;20656;-72
2023/04/08 05:49:35;;;;;;;12.03;11.03;;;;;;;9.85;100.00;100748.97;5028225;28;20952;-71
2023/04/08 05:52:02;;;;;;;11.33;10.23;;;;;;;9.94;100.00;100750.69;5031597;28;20222;-74
2023/04/08 05:54:28;;;;;;;11.00;10.10;;;;;;;9.99;100.00;100747.25;5031379;28;20770;-72
2023/04/08 05:56:53;;;;;;;11.60;10.70;;;;;;;10.04;100.00;100739.50;5032842;28;20287;-72
2023/04/08 05:59:18;;;;;;;11.77;10.67;;;;;;;10.10;100.00;100746.38;5036982;28;20293;-71
2023/04/08 06:01:44;;;;;;;11.53;10.63;;;;;;;10.16;100.00;100748.97;5034234;28;20230;-71
2023/04/08 06:04:09;;;;;;;11.93;10.93;;;;;;;10.25;100.00;100750.72;5038047;28;20213;-72
2023/04/08 06:06:40;;;;;;;33.70;25.83;;;;;;;10.35;100.00;100752.41;5030809;28;20251;-71
2023/04/08 06:09:05;;;;;;;113.63;77.50;;;;;;;10.46;100.00;100755.03;5031879;28;20250;-75
2023/04/08 06:11:31;;;;;;;122.77;87.37;;;;;;;10.61;100.00;100755.03;5033836;28;20883;-72
2023/04/08 06:13:56;;;;;;;91.70;67.23;;;;;;;10.73;100.00;100766.22;5032722;28;20408;-73
2023/04/08 06:16:21;;;;;;;63.97;52.07;;;;;;;10.78;100.00;100765.34;5028375;28;20535;-73
2023/04/08 06:18:47;;;;;;;52.63;46.73;;;;;;;10.82;100.00;100768.78;5030950;28;20683;-71
2023/04/08 06:21:13;;;;;;;43.87;37.87;;;;;;;10.85;100.00;100765.34;5038228;28;20214;-72
2023/04/08 06:23:38;;;;;;;39.10;35.10;;;;;;;10.88;100.00;100768.78;5034747;28;20242;-72
2023/04/08 06:26:04;;;;;;;33.40;29.93;;;;;;;10.92;100.00;100762.72;5033046;28;20187;-72
2023/04/08 06:28:30;;;;;;;28.10;25.30;;;;;;;10.96;100.00;100761.84;5031640;28;20195;-72
2023/04/08 06:30:55;;;;;;;28.37;25.57;;;;;;;11.00;100.00;100767.88;5025970;28;20187;-72
2023/04/08 06:33:21;;;;;;;32.50;29.30;;;;;;;11.02;100.00;100768.75;5029846;28;20219;-72
2023/04/08 06:35:46;;;;;;;32.00;28.77;;;;;;;11.01;100.00;100766.13;5034738;28;20192;-74
2023/04/08 06:38:11;;;;;;;30.40;27.50;;;;;;;10.99;100.00;100771.34;5030399;28;20192;-72
2023/04/08 06:40:40;;;;;;;26.40;23.97;;;;;;;10.98;100.00;100773.03;5033412;28;20196;-72
2023/04/08 06:43:06;;;;;;;21.73;19.73;;;;;;;11.00;100.00;100772.19;5033391;28;20187;-73
2023/04/08 06:45:32;;;;;;;19.93;18.17;;;;;;;11.08;100.00;100776.47;5037843;28;20186;-73
2023/04/08 06:47:57;;;;;;;17.57;16.07;;;;;;;11.19;100.00;100779.03;5034646;28;20697;-69
2023/04/08 06:50:22;;;;;;;16.20;14.80;;;;;;;11.34;100.00;100780.72;5037166;28;20617;-74
2023/04/08 06:52:48;;;;;;;15.97;14.57;;;;;;;11.47;100.00;100781.50;5041211;28;20199;-71
2023/04/08 06:55:13;;;;;;;14.63;13.43;;;;;;;11.62;100.00;100784.88;5038661;28;20554;-73
2023/04/08 06:57:38;;;;;;;16.23;14.83;;;;;;;11.75;100.00;100789.13;5033597;28;20194;-74
2023/04/08 07:00:05;;;;;;;14.80;13.50;;;;;;;11.86;100.00;100789.06;5034038;28;20234;-73
2023/04/08 07:02:31;;;;;;;14.13;12.93;;;;;;;11.97;100.00;100787.25;5034986;28;20198;-73
2023/04/08 07:04:57;;;;;;;13.10;12.00;;;;;;;12.05;100.00;100789.84;5035947;28;20766;-72
2023/04/08 07:07:23;;;;;;;12.73;11.73;;;;;;;12.10;100.00;100795.88;5038620;28;20293;-71
2023/04/08 07:09:49;;;;;;;13.10;12.00;;;;;;;12.14;100.00;100794.97;5034129;28;20204;-71
2023/04/08 07:12:14;;;;;;;11.43;10.53;;;;;;;12.22;100.00;100791.47;5032427;28;20708;-70
2023/04/08 07:14:40;;;;;;;10.93;10.03;;;;;;;12.29;100.00;100795.75;5041172;28;20207;-72
2023/04/08 07:17:05;;;;;;;9.93;9.13;;;;;;;12.40;100.00;100798.25;5033681;28;20205;-74
2023/04/08 07:19:31;;;;;;;11.70;10.70;;;;;;;12.45;100.00;100796.47;5049519;28;20183;-72
2023/04/08 07:21:56;;;;;;;11.47;10.47;;;;;;;12.43;100.00;100800.78;5035430;28;20185;-75
2023/04/08 07:24:22;;;;;;;11.40;10.40;;;;;;;12.45;100.00;100797.34;5034818;28;20250;-72
2023/04/08 07:26:48;;;;;;;10.17;9.37;;;;;;;12.58;100.00;100800.66;5038793;28;20197;-74
2023/04/08 07:29:14;;;;;;;9.87;9.07;;;;;;;12.72;100.00;100803.16;5038008;28;20195;-74
2023/04/08 07:31:42;;;;;;;10.77;9.87;;;;;;;12.86;100.00;100800.41;5034426;28;20257;-72
2023/04/08 07:34:07;;;;;;;14.47;13.17;;;;;;;12.71;97.25;100796.22;5040051;28;20258;-72
2023/04/08 07:36:32;;;;;;;14.50;13.20;;;;;;;12.57;97.44;100795.50;5034724;28;20616;-73
2023/04/08 07:38:57;;;;;;;13.30;12.10;;;;;;;12.37;97.69;100801.72;5042969;28;20205;-73
2023/04/08 07:41:23;;;;;;;14.00;12.70;;;;;;;12.24;98.54;100813.94;5041468;28;20211;-73
2023/04/08 07:43:48;;;;;;;12.93;11.83;;;;;;;12.10;99.50;100811.44;5032155;28;20286;-71
2023/04/08 07:46:13;;;;;;;13.93;12.63;;;;;;;12.03;97.87;100810.63;5040248;28;20232;-71
2023/04/08 07:48:39;;;;;;;12.67;11.47;;;;;;;11.97;97.47;100813.22;5031110;28;20238;-71
2023/04/08 07:51:09;;;;;;;13.27;12.07;;;;;;;11.97;98.11;100812.34;5033158;28;20202;-72
2023/04/08 07:53:34;;;;;;;12.60;11.40;;;;;;;12.03;97.53;100818.41;5036263;28;20248;-72
2023/04/08 07:56:02;;;;;;;12.83;11.63;;;;;;;12.06;96.59;100814.91;5039595;28;20720;-72
2023/04/08 07:58:28;;;;;;;11.83;10.73;;;;;;;12.26;95.21;100817.38;5034790;28;20196;-75
2023/04/08 08:00:53;;;;;;;10.57;9.63;;;;;;;12.42;93.85;100818.13;5033168;28;20191;-71
2023/04/08 08:03:18;;;;;;;9.30;8.40;;;;;;;12.69;92.59;100825.69;5031920;28;20910;-75
2023/04/08 08:05:44;;;;;;;10.77;9.73;;;;;;;12.90;90.95;100819.44;5032367;28;20189;-72
2023/04/08 08:08:12;;;;;;;10.70;9.70;;;;;;;13.14;90.99;100833.03;5033815;28;20204;-72
2023/04/08 08:10:38;;;;;;;10.03;9.13;;;;;;;13.46;90.24;100824.03;5038816;28;20647;-72
2023/04/08 08:13:06;;;;;;;9.83;8.93;;;;;;;13.75;88.44;100825.41;5032894;28;20837;-72
2023/04/08 08:15:31;;;;;;;9.47;8.57;;;;;;;13.84;88.49;100830.50;5030892;28;20189;-72
2023/04/08 08:17:57;;;;;;;8.63;7.93;;;;;;;13.82;87.15;100829.66;5038446;28;20236;-72
2023/04/08 08:20:22;;;;;;;9.17;8.30;;;;;;;13.68;87.76;100824.63;5060058;28;20245;-72
2023/04/08 08:22:47;;;;;;;9.60;8.70;;;;;;;13.47;87.77;100831.81;5040182;28;20277;-72
2023/04/08 08:25:13;;;;;;;9.30;8.50;;;;;;;13.30;88.42;100831.13;5034182;28;20307;-72
2023/04/08 08:27:40;;;;;;;8.50;7.73;;;;;;;13.06;88.90;100825.31;5034470;28;20197;-72
2023/04/08 08:30:06;;;;;;;8.60;7.80;;;;;;;13.05;89.49;100834.88;5038209;28;20191;-71
2023/04/08 08:32:32;;;;;;;9.33;8.43;;;;;;;13.13;89.90;100837.38;5031803;28;20217;-71
2023/04/08 08:34:57;;;;;;;8.73;7.97;;;;;;;13.21;89.33;100835.53;5034760;28;20216;-73
2023/04/08 08:37:22;;;;;;;16.37;13.87;;;;;;;13.23;88.12;100830.34;5035044;28;20213;-74
2023/04/08 08:39:48;;;;;;;10.23;9.33;;;;;;;13.05;87.70;100842.66;5032182;28;21629;-73
2023/04/08 08:42:24;;;;;;;12.10;11.00;;;;;;;13.04;88.16;100834.84;5032839;28;20190;-74
2023/04/08 08:44:50;;;;;;;10.83;9.93;;;;;;;13.11;88.46;100847.78;5029364;28;20757;-72
2023/04/08 08:47:16;;;;;;;9.87;9.03;;;;;;;13.23;87.55;100845.94;5030776;28;20588;-71
2023/04/08 08:49:42;;;;;;;20.27;18.60;;;;;;;13.35;87.17;100837.13;5029120;28;20196;-71
2023/04/08 08:52:08;;;;;;;17.63;16.07;;;;;;;13.43;84.92;100839.66;5023820;28;20222;-73
2023/04/08 08:54:33;;;;;;;19.67;17.97;;;;;;;13.53;84.22;100841.28;5034236;28;20210;-72
2023/04/08 08:56:59;;;;;;;11.73;10.63;;;;;;;13.64;84.13;100843.72;5029432;28;20268;-72
2023/04/08 08:59:24;;;;;;;10.10;9.20;;;;;;;13.74;83.61;100847.97;5030993;28;20190;-72
2023/04/08 09:01:50;;;;;;;11.87;10.77;;;;;;;13.59;81.96;100845.56;5028547;28;20190;-72
2023/04/08 09:04:21;;;;;;;11.20;10.30;;;;;;;13.76;82.12;100845.31;5036986;28;20296;-72
2023/04/08 09:06:48;;;;;;;10.67;9.77;;;;;;;13.84;82.25;100857.34;5027528;28;20221;-75
2023/04/08 09:09:14;;;;;;;11.30;10.30;;;;;;;13.95;81.23;100865.03;5030245;28;20253;-72
2023/04/08 09:11:41;;;;;;;11.70;10.60;;;;;;;13.90;80.82;100856.41;5030908;28;20275;-72
2023/04/08 09:14:17;;;;;;;11.63;10.53;;;;;;;13.68;80.83;100861.03;5027889;28;20215;-73
2023/04/08 09:16:43;;;;;;;11.47;10.47;;;;;;;13.64;81.76;100854.13;5029305;28;20194;-74
2023/04/08 09:19:10;;;;;;;10.87;9.97;;;;;;;13.67;81.79;100852.38;5032374;28;20189;-72
2023/04/08 09:21:36;;;;;;;9.67;8.87;;;;;;;13.76;81.92;100855.72;5030627;28;20231;-72
2023/04/08 09:24:01;;;;;;;10.03;9.23;;;;;;;13.82;81.59;100855.66;5038759;28;20298;-73
2023/04/08 09:26:27;;;;;;;9.20;8.40;;;;;;;13.74;81.85;100852.28;5029956;28;20852;-72
2023/04/08 09:29:01;;;;;;;10.23;9.33;;;;;;;13.77;81.71;100858.31;5030956;28;20256;-71
2023/04/08 09:31:29;;;;;;;9.90;9.10;;;;;;;13.79;81.45;100850.50;5031441;28;20244;-72
2023/04/08 09:34:08;;;;;;;11.90;10.90;;;;;;;13.71;80.30;100848.84;5038236;28;20302;-72
2023/04/08 09:36:33;;;;;;;11.63;10.63;;;;;;;13.62;80.60;100848.09;5032422;28;20178;-72
2023/04/08 09:38:59;;;;;;;9.97;9.07;;;;;;;13.69;80.97;100844.56;5035687;28;20195;-72
2023/04/08 09:41:27;;;;;;;10.93;9.70;;;;;;;13.76;80.77;100842.72;5031410;28;20663;-71
2023/04/08 09:43:54;;;;;;;11.20;10.30;;;;;;;13.97;80.54;100847.66;5031050;28;20628;-72
2023/04/08 09:46:49;;;;;;;11.57;10.57;;;;;;;14.07;79.69;100844.91;5027902;28;20958;-73
2023/04/08 09:49:22;;;;;;;9.60;8.80;;;;;;;14.17;79.72;100841.28;5029320;28;20203;-71
2023/04/08 09:52:10;;;;;;;8.33;7.67;;;;;;;14.43;79.63;100846.09;5027860;28;20218;-71
2023/04/08 09:54:54;;;;;;;9.87;9.07;;;;;;;14.80;78.09;100843.78;5028306;28;20203;-70
2023/04/08 09:57:45;;;;;;;10.57;9.67;;;;;;;15.07;74.70;100840.69;5025464;28;20195;-71
2023/04/08 10:00:14;;;;;;;9.80;9.07;;;;;;;15.39;74.50;100844.41;5023887;28;20229;-74
2023/04/08 10:02:46;;;;;;;9.87;9.07;;;;;;;15.66;74.68;100838.63;5029472;28;20199;-73
2023/04/08 10:05:13;;;;;;;9.20;8.40;;;;;;;15.93;75.19;100844.19;5033293;28;20276;-76
2023/04/08 10:07:40;;;;;;;9.10;8.30;;;;;;;16.19;74.48;100838.34;5031977;28;20186;-76
2023/04/08 10:10:08;;;;;;;9.20;8.13;;;;;;;16.43;73.79;100844.75;5030295;28;20206;-72
2023/04/08 10:12:33;;;;;;;9.47;8.77;;;;;;;16.47;71.83;100842.94;5031926;28;20763;-74
2023/04/08 10:15:29;;;;;;;9.43;8.53;;;;;;;16.55;71.35;100846.19;5033905;28;20277;-72
2023/04/08 10:18:04;;;;;;;8.17;7.57;;;;;;;16.85;69.49;100838.47;5035049;28;20192;-74
2023/04/08 10:20:35;;;;;;;11.47;10.50;;;;;;;16.66;66.38;100843.31;5034251;28;20278;-71
2023/04/08 10:23:07;;;;;;;24.73;21.23;;;;;;;16.33;66.31;100842.41;5036940;28;20228;-71
2023/04/08 10:25:37;;;;;;;11.60;10.50;;;;;;;16.46;65.99;100844.66;5032807;28;20223;-74
2023/04/08 10:28:16;;;;;;;11.70;10.70;;;;;;;16.36;66.68;100842.31;5033667;28;20231;-73
2023/04/08 10:30:44;;;;;;;8.73;8.03;;;;;;;16.36;67.50;100840.56;5035399;28;20184;-74
2023/04/08 10:33:18;;;;;;;8.30;7.70;;;;;;;16.52;68.18;100835.81;5032392;28;20216;-74
2023/04/08 10:35:47;;;;;;;10.00;9.10;;;;;;;16.67;69.17;100842.44;5033651;28;20178;-72
2023/04/08 10:38:14;;;;;;;9.77;8.97;;;;;;;16.56;68.35;100837.47;5036142;28;20192;-74
2023/04/08 10:40:41;;;;;;;9.80;8.97;;;;;;;16.41;68.44;100833.47;5030007;28;20190;-74
2023/04/08 10:43:12;;;;;;;10.27;9.47;;;;;;;16.15;69.44;100837.56;5030414;28;20191;-74
2023/04/08 10:45:39;;;;;;;10.43;9.60;;;;;;;15.95;68.47;100837.19;5036117;28;20555;-71
2023/04/08 10:48:13;;;;;;;10.33;9.53;;;;;;;16.08;67.61;100840.38;5036820;28;20200;-72
2023/04/08 10:50:39;;;;;;;10.00;9.13;;;;;;;16.28;67.12;100832.06;5030971;28;20275;-73
2023/04/08 10:53:06;;;;;;;8.93;8.20;;;;;;;16.54;66.85;100830.56;5031923;28;20853;-73
2023/04/08 10:55:32;;;;;;;8.20;7.50;;;;;;;16.76;66.77;100823.03;5031426;28;20217;-73
2023/04/08 10:58:08;;;;;;;11.03;10.03;;;;;;;16.83;66.51;100821.97;5033640;28;20189;-73
2023/04/08 11:00:36;;;;;;;10.50;9.60;;;;;;;16.83;66.77;100826.34;5033244;28;20354;-73
2023/04/08 11:03:10;;;;;;;10.47;9.47;;;;;;;16.88;66.76;100821.84;5052491;28;20195;-72
2023/04/08 11:05:37;;;;;;;10.03;9.23;;;;;;;17.01;66.62;100817.19;5036368;28;20186;-73
2023/04/08 11:08:04;;;;;;;10.60;9.80;;;;;;;17.01;65.36;100814.56;5033537;28;20185;-75
2023/04/08 11:10:30;;;;;;;11.20;10.30;;;;;;;16.90;63.25;100814.81;5036272;28;20179;-71
2023/04/08 11:12:57;;;;;;;11.40;10.40;;;;;;;17.03;60.76;100820.63;5032294;28;20638;-73
2023/04/08 11:15:29;;;;;;;10.83;9.93;;;;;;;16.95;62.12;100812.97;5036212;28;20184;-74